createdAt,value
2018-09-13T00:01:54.683Z,3.33
2018-09-13T00:04:23.535Z,2.90
2018-09-13T00:06:52.516Z,3.03
2018-09-13T00:09:21.357Z,3.92
2018-09-13T00:11:50.210Z,2.77
2018-09-13T00:14:19.044Z,3.00
2018-09-13T00:16:47.871Z,2.87
2018-09-13T00:19:16.736Z,3.10
2018-09-13T00:21:45.572Z,2.70
2018-09-13T00:24:14.402Z,2.90
2018-09-13T00:26:43.282Z,3.03
2018-09-13T00:29:12.126Z,3.17
2018-09-13T00:31:40.970Z,2.83
2018-09-13T00:34:09.806Z,3.20
2018-09-13T00:36:38.648Z,3.10
2018-09-13T00:39:08.151Z,2.77
2018-09-13T00:41:37.358Z,3.00
2018-09-13T00:44:06.286Z,3.50
2018-09-13T00:46:35.559Z,2.93
2018-09-13T00:49:04.747Z,3.03
2018-09-13T00:51:34.071Z,3.20
2018-09-13T00:54:02.979Z,3.17
2018-09-13T00:56:31.834Z,3.20
2018-09-13T00:59:00.721Z,3.07
2018-09-13T01:01:29.502Z,3.20
2018-09-13T01:03:58.338Z,3.20
2018-09-13T01:06:27.178Z,2.70
2018-09-13T01:08:56.024Z,3.27
2018-09-13T01:11:24.853Z,2.83
2018-09-13T01:13:53.664Z,2.90
2018-09-13T01:16:22.506Z,2.77
2018-09-13T01:18:51.330Z,3.40
2018-09-13T01:21:20.443Z,3.10
2018-09-13T01:23:49.275Z,2.80
2018-09-13T01:26:18.116Z,3.07
2018-09-13T01:28:47.042Z,3.10
2018-09-13T01:31:15.897Z,2.80
2018-09-13T01:33:44.711Z,2.87
2018-09-13T01:36:13.538Z,3.33
2018-09-13T01:38:42.409Z,2.90
2018-09-13T01:41:11.225Z,3.47
2018-09-13T01:43:40.071Z,3.50
2018-09-13T01:46:08.897Z,3.03
2018-09-13T01:48:37.710Z,3.27
2018-09-13T01:51:06.644Z,2.50
2018-09-13T01:53:35.477Z,2.67
2018-09-13T01:56:04.340Z,3.00
2018-09-13T01:58:33.174Z,2.93
2018-09-13T02:01:02.031Z,3.10
2018-09-13T02:03:30.905Z,3.00
2018-09-13T02:05:59.757Z,2.57
2018-09-13T02:08:28.625Z,2.80
2018-09-13T02:10:57.462Z,3.17
2018-09-13T02:13:26.297Z,3.13
2018-09-13T02:15:55.163Z,2.87
2018-09-13T02:18:23.978Z,2.90
2018-09-13T02:20:52.799Z,2.87
2018-09-13T02:23:21.624Z,3.03
2018-09-13T02:25:50.448Z,3.00
2018-09-13T02:28:19.292Z,3.00
2018-09-13T02:30:48.141Z,3.20
2018-09-13T02:33:16.992Z,2.57
2018-09-13T02:35:45.818Z,2.93
2018-09-13T02:38:14.651Z,3.10
2018-09-13T02:40:43.474Z,2.90
2018-09-13T02:43:12.286Z,3.10
2018-09-13T02:45:41.118Z,2.73
2018-09-13T02:48:09.972Z,2.37
2018-09-13T02:50:38.798Z,2.80
2018-09-13T02:53:07.965Z,3.07
2018-09-13T02:55:36.780Z,3.03
2018-09-13T02:58:05.637Z,2.80
2018-09-13T03:00:34.472Z,2.80
2018-09-13T03:03:03.303Z,3.20
2018-09-13T03:05:32.100Z,3.20
2018-09-13T03:08:00.927Z,3.00
2018-09-13T03:10:29.744Z,2.73
2018-09-13T03:12:58.584Z,3.03
2018-09-13T03:15:27.419Z,2.93
2018-09-13T03:17:56.235Z,2.60
2018-09-13T03:20:25.075Z,3.00
2018-09-13T03:22:53.920Z,2.80
2018-09-13T03:25:22.740Z,2.87
2018-09-13T03:27:51.819Z,2.80
2018-09-13T03:30:20.667Z,2.83
2018-09-13T03:32:49.591Z,2.70
2018-09-13T03:35:18.688Z,3.10
2018-09-13T03:37:47.539Z,3.00
2018-09-13T03:40:16.352Z,2.60
2018-09-13T03:42:45.183Z,2.53
2018-09-13T03:45:14.035Z,3.00
2018-09-13T03:47:42.914Z,3.00
2018-09-13T03:50:11.779Z,2.93
2018-09-13T03:52:40.594Z,2.70
2018-09-13T03:55:09.433Z,3.00
2018-09-13T03:57:38.267Z,2.90
2018-09-13T04:00:07.379Z,2.73
2018-09-13T04:02:36.216Z,3.20
2018-09-13T04:05:05.098Z,2.97
2018-09-13T04:07:33.956Z,3.10
2018-09-13T04:10:02.811Z,2.83
2018-09-13T04:12:31.619Z,2.53
2018-09-13T04:15:00.453Z,2.90
2018-09-13T04:17:29.309Z,3.13
2018-09-13T04:19:58.162Z,3.30
2018-09-13T04:22:27.069Z,2.53
2018-09-13T04:24:55.876Z,2.70
2018-09-13T04:27:24.774Z,2.90
2018-09-13T04:29:53.586Z,2.30
2018-09-13T04:32:22.433Z,3.03
2018-09-13T04:34:51.245Z,2.70
2018-09-13T04:37:20.089Z,2.90
2018-09-13T04:39:48.914Z,3.13
2018-09-13T04:42:17.768Z,2.60
2018-09-13T04:44:46.675Z,2.87
2018-09-13T04:47:15.541Z,2.80
2018-09-13T04:49:44.364Z,2.93
2018-09-13T04:52:13.239Z,2.57
2018-09-13T04:54:42.089Z,2.97
2018-09-13T04:57:10.934Z,2.70
2018-09-13T04:59:39.763Z,2.53
2018-09-13T05:02:08.585Z,3.40
2018-09-13T05:04:37.429Z,2.63
2018-09-13T05:07:06.234Z,2.40
2018-09-13T05:09:35.066Z,2.20
2018-09-13T05:12:03.896Z,2.50
2018-09-13T05:14:32.763Z,2.43
2018-09-13T05:17:01.664Z,2.47
2018-09-13T05:19:30.516Z,2.50
2018-09-13T05:21:59.332Z,2.50
2018-09-13T05:24:28.247Z,2.77
2018-09-13T05:26:56.988Z,2.50
2018-09-13T05:29:25.808Z,2.43
2018-09-13T05:31:54.662Z,2.40
2018-09-13T05:34:23.507Z,2.50
2018-09-13T05:36:52.392Z,2.47
2018-09-13T05:39:21.229Z,2.30
2018-09-13T05:41:50.046Z,2.40
2018-09-13T05:44:18.879Z,2.50
2018-09-13T05:46:47.722Z,2.50
2018-09-13T05:49:16.559Z,2.83
2018-09-13T05:51:45.420Z,2.50
2018-09-13T05:54:14.288Z,2.60
2018-09-13T05:56:43.148Z,2.37
2018-09-13T05:59:11.981Z,2.30
2018-09-13T06:01:40.844Z,2.17
2018-09-13T06:04:09.690Z,2.20
2018-09-13T06:06:38.547Z,2.40
2018-09-13T06:09:08.011Z,2.10
2018-09-13T06:11:36.849Z,2.95
2018-09-13T06:14:05.961Z,2.53
2018-09-13T06:16:35.501Z,2.23
2018-09-13T06:19:04.337Z,2.40
2018-09-13T06:21:33.177Z,2.50
2018-09-13T06:24:02.026Z,2.67
2018-09-13T06:26:30.882Z,2.63
2018-09-13T06:28:59.733Z,2.40
2018-09-13T06:31:28.569Z,2.53
2018-09-13T06:33:57.392Z,2.40
2018-09-13T06:36:26.307Z,2.53
2018-09-13T06:38:55.084Z,2.97
2018-09-13T06:41:23.896Z,2.60
2018-09-13T06:43:52.729Z,2.97
2018-09-13T06:46:21.606Z,3.00
2018-09-13T06:48:50.427Z,2.40
2018-09-13T06:51:19.256Z,2.30
2018-09-13T06:53:48.116Z,2.47
2018-09-13T06:56:16.948Z,2.60
2018-09-13T06:58:45.765Z,2.60
2018-09-13T07:01:14.631Z,2.90
2018-09-13T07:03:43.471Z,3.12
2018-09-13T07:06:12.294Z,2.43
2018-09-13T07:08:41.144Z,2.43
2018-09-13T07:11:09.970Z,2.60
2018-09-13T07:13:39.449Z,3.05
2018-09-13T07:16:08.271Z,2.47
2018-09-13T07:18:37.079Z,2.33
2018-09-13T07:21:06.039Z,2.40
2018-09-13T07:23:34.928Z,2.27
2018-09-13T07:26:03.669Z,2.57
2018-09-13T07:28:32.520Z,2.10
2018-09-13T07:31:01.556Z,3.20
2018-09-13T07:33:30.313Z,2.73
2018-09-13T07:35:59.129Z,2.60
2018-09-13T07:38:27.992Z,2.90
2018-09-13T07:40:56.809Z,3.22
2018-09-13T07:43:25.654Z,2.97
2018-09-13T07:45:54.481Z,2.53
2018-09-13T07:48:23.321Z,2.80
2018-09-13T07:50:52.157Z,2.62
2018-09-13T07:53:21.001Z,2.87
2018-09-13T07:55:49.892Z,2.85
2018-09-13T07:58:18.666Z,2.83
2018-09-13T08:00:47.512Z,2.47
2018-09-13T08:03:16.369Z,2.67
2018-09-13T08:05:45.207Z,2.37
2018-09-13T08:08:14.050Z,2.43
2018-09-13T08:10:42.887Z,2.53
2018-09-13T08:13:11.780Z,2.33
2018-09-13T08:15:40.632Z,2.40
2018-09-13T08:18:09.705Z,2.50
2018-09-13T08:20:38.531Z,2.63
2018-09-13T08:23:07.466Z,2.67
2018-09-13T08:25:36.239Z,1.90
2018-09-13T08:28:05.055Z,2.67
2018-09-13T08:30:33.921Z,2.67
2018-09-13T08:33:02.932Z,2.17
2018-09-13T08:35:31.807Z,2.23
2018-09-13T08:38:00.657Z,2.40
2018-09-13T08:40:30.381Z,2.03
2018-09-13T08:43:05.357Z,2.50
2018-09-13T08:45:36.364Z,2.40
2018-09-13T08:48:08.659Z,2.03
2018-09-13T08:50:40.719Z,2.47
2018-09-13T08:53:09.756Z,2.57
2018-09-13T08:55:41.046Z,2.15
2018-09-13T08:58:10.053Z,2.40
2018-09-13T09:00:39.058Z,2.10
2018-09-13T09:03:08.046Z,2.10
2018-09-13T09:05:39.364Z,2.08
2018-09-13T09:08:08.618Z,2.35
2018-09-13T09:10:38.226Z,2.50
2018-09-13T09:13:07.400Z,2.42
2018-09-13T09:15:39.048Z,2.77
2018-09-13T09:18:08.614Z,2.60
2018-09-13T09:20:46.642Z,2.37
2018-09-13T09:23:15.849Z,2.58
2018-09-13T09:25:48.180Z,2.50
2018-09-13T09:28:17.079Z,2.67
2018-09-13T09:30:46.044Z,2.50
2018-09-13T09:33:15.235Z,2.20
2018-09-13T09:35:47.344Z,2.05
2018-09-13T09:38:16.465Z,1.98
2018-09-13T09:40:50.936Z,2.10
2018-09-13T09:43:17.947Z,2.10
2018-09-13T09:45:50.098Z,1.87
2018-09-13T09:48:19.414Z,2.00
2018-09-13T09:50:54.509Z,1.95
2018-09-13T09:53:23.824Z,2.08
2018-09-13T09:55:53.031Z,2.22
2018-09-13T09:58:22.376Z,2.10
2018-09-13T10:01:09.549Z,2.00
2018-09-13T10:03:41.481Z,2.10
2018-09-13T10:06:17.816Z,1.70
2018-09-13T10:08:49.184Z,2.02
2018-09-13T10:11:18.452Z,2.20
2018-09-13T10:13:49.069Z,2.10
2018-09-13T10:16:48.238Z,1.65
2018-09-13T10:19:35.015Z,2.05
2018-09-13T10:22:25.394Z,2.00
2018-09-13T10:25:12.256Z,2.50
2018-09-13T10:28:00.111Z,2.00
2018-09-13T10:30:47.073Z,2.22
2018-09-13T10:33:36.067Z,2.12
2018-09-13T10:36:24.331Z,2.00
2018-09-13T10:39:12.397Z,1.90
2018-09-13T10:42:03.357Z,2.00
2018-09-13T10:44:51.559Z,2.12
2018-09-13T10:47:42.162Z,1.98
2018-09-13T10:50:28.622Z,1.82
2018-09-13T10:53:11.783Z,2.25
2018-09-13T10:55:43.765Z,1.60
2018-09-13T10:58:15.485Z,1.80
2018-09-13T11:00:44.616Z,2.20
2018-09-13T11:03:13.694Z,1.90
2018-09-13T11:05:43.035Z,2.37
2018-09-13T11:08:12.119Z,1.90
2018-09-13T11:10:45.595Z,1.95
2018-09-13T11:13:35.224Z,1.70
2018-09-13T11:16:02.852Z,1.82
2018-09-13T11:18:38.319Z,1.87
2018-09-13T11:21:07.715Z,1.90
2018-09-13T11:23:36.845Z,1.80
2018-09-13T11:26:06.068Z,1.98
2018-09-13T11:28:40.082Z,1.75
2018-09-13T11:31:09.064Z,1.70
2018-09-13T11:33:40.747Z,2.17
2018-09-13T11:36:11.536Z,1.77
2018-09-13T11:38:42.592Z,1.82
2018-09-13T11:41:11.962Z,1.90
2018-09-13T11:43:46.446Z,1.87
2018-09-13T11:46:16.795Z,1.50
2018-09-13T11:48:45.929Z,1.50
2018-09-13T11:51:17.496Z,1.60
2018-09-13T11:53:46.758Z,1.70
2018-09-13T11:56:15.793Z,1.90
2018-09-13T11:58:44.758Z,1.42
2018-09-13T12:01:13.919Z,1.50
2018-09-13T12:03:42.974Z,1.55
2018-09-13T12:06:12.044Z,1.92
2018-09-13T12:08:40.881Z,1.72
2018-09-13T12:11:09.706Z,1.67
2018-09-13T12:13:38.528Z,1.52
2018-09-13T12:16:07.398Z,1.50
2018-09-13T12:18:36.283Z,1.50
2018-09-13T12:21:05.115Z,1.62
2018-09-13T12:23:33.951Z,1.52
2018-09-13T12:26:02.780Z,1.60
2018-09-13T12:28:31.641Z,1.80
2018-09-13T12:31:00.463Z,1.27
2018-09-13T12:33:29.396Z,1.20
2018-09-13T12:35:58.209Z,1.27
2018-09-13T12:38:27.037Z,1.60
2018-09-13T12:40:55.952Z,1.87
2018-09-13T12:43:24.790Z,1.70
2018-09-13T12:45:53.591Z,1.30
2018-09-13T12:48:22.444Z,1.70
2018-09-13T12:50:51.275Z,1.42
2018-09-13T12:53:20.117Z,1.57
2018-09-13T12:55:55.986Z,1.55
2018-09-13T12:58:26.086Z,1.40
2018-09-13T13:00:54.988Z,1.45
2018-09-13T13:03:23.856Z,1.57
2018-09-13T13:05:52.976Z,1.67
2018-09-13T13:08:21.819Z,1.70
2018-09-13T13:10:50.672Z,1.50
2018-09-13T13:13:19.523Z,1.30
2018-09-13T13:15:48.406Z,1.50
2018-09-13T13:18:17.245Z,1.30
2018-09-13T13:20:46.085Z,1.27
2018-09-13T13:23:14.943Z,1.32
2018-09-13T13:25:43.783Z,1.70
2018-09-13T13:28:12.605Z,1.80
2018-09-13T13:30:41.419Z,1.85
2018-09-13T13:33:10.257Z,1.60
2018-09-13T13:35:39.059Z,1.72
2018-09-13T13:38:07.953Z,1.40
2018-09-13T13:40:36.791Z,1.45
2018-09-13T13:43:05.625Z,1.70
2018-09-13T13:45:34.491Z,1.40
2018-09-13T13:48:03.318Z,1.62
2018-09-13T13:50:32.124Z,1.30
2018-09-13T13:53:00.960Z,1.60
2018-09-13T13:55:29.840Z,1.40
2018-09-13T13:57:58.800Z,1.27
2018-09-13T14:00:27.648Z,1.72
2018-09-13T14:02:56.486Z,1.25
2018-09-13T14:05:25.321Z,1.37
2018-09-13T14:07:54.170Z,1.55
2018-09-13T14:10:23.009Z,1.80
2018-09-13T14:12:51.841Z,1.70
2018-09-13T14:15:20.666Z,1.47
2018-09-13T14:17:49.494Z,1.85
2018-09-13T14:20:18.418Z,1.30
2018-09-13T14:22:47.238Z,1.80
2018-09-13T14:25:16.148Z,1.65
2018-09-13T14:27:44.962Z,1.67
2018-09-13T14:30:13.832Z,1.40
2018-09-13T14:32:42.656Z,1.52
2018-09-13T14:35:11.500Z,1.57
2018-09-13T14:37:40.350Z,1.50
2018-09-13T14:40:09.532Z,1.62
2018-09-13T14:42:38.390Z,1.70
2018-09-13T14:45:07.213Z,1.50
2018-09-13T14:47:36.058Z,1.30
2018-09-13T14:50:04.848Z,1.30
2018-09-13T14:52:33.714Z,1.40
2018-09-13T14:55:02.578Z,1.70
2018-09-13T14:57:31.415Z,1.37
2018-09-13T15:00:00.276Z,1.60
2018-09-13T15:02:30.033Z,1.75
2018-09-13T15:04:59.011Z,1.35
2018-09-13T15:07:28.036Z,1.55
2018-09-13T15:10:06.628Z,1.60
2018-09-13T15:12:35.634Z,1.98
2018-09-13T15:15:04.897Z,1.57
2018-09-13T15:17:34.055Z,1.97
2018-09-13T15:20:03.415Z,1.70
2018-09-13T15:22:38.406Z,1.85
2018-09-13T15:25:07.503Z,1.52
2018-09-13T15:27:36.606Z,1.50
2018-09-13T15:30:06.151Z,1.50
2018-09-13T15:32:35.286Z,1.45
2018-09-13T15:35:04.353Z,1.70
2018-09-13T15:37:33.481Z,1.70
2018-09-13T15:40:02.610Z,1.70
2018-09-13T15:42:34.294Z,1.60
2018-09-13T15:45:03.214Z,1.52
2018-09-13T15:47:34.328Z,1.52
2018-09-13T15:50:03.529Z,1.50
2018-09-13T15:52:35.468Z,1.67
2018-09-13T15:55:04.741Z,1.93
2018-09-13T15:57:33.681Z,1.70
2018-09-13T16:00:02.697Z,1.80
2018-09-13T16:02:31.835Z,1.57
2018-09-13T16:05:00.888Z,1.60
2018-09-13T16:07:30.001Z,1.60
2018-09-13T16:09:59.008Z,1.40
2018-09-13T16:12:28.250Z,1.60
2018-09-13T16:14:57.288Z,1.90
2018-09-13T16:17:26.562Z,1.60
2018-09-13T16:19:58.841Z,1.90
2018-09-13T16:22:27.881Z,1.60
2018-09-13T16:24:58.992Z,1.67
2018-09-13T16:27:31.243Z,1.60
2018-09-13T16:30:00.890Z,1.70
2018-09-13T16:32:29.985Z,1.60
2018-09-13T16:34:59.928Z,1.67
2018-09-13T16:37:46.815Z,1.90
2018-09-13T16:40:33.939Z,1.80
2018-09-13T16:43:15.743Z,1.73
2018-09-13T16:45:44.743Z,1.43
2018-09-13T16:48:13.819Z,1.70
2018-09-13T16:50:42.941Z,1.60
2018-09-13T16:53:12.305Z,1.90
2018-09-13T16:55:41.546Z,1.93
2018-09-13T16:58:10.653Z,1.77
2018-09-13T17:00:42.602Z,1.80
2018-09-13T17:03:15.369Z,2.20
2018-09-13T17:05:44.497Z,1.60
2018-09-13T17:08:13.483Z,1.83
2018-09-13T17:10:42.652Z,1.67
2018-09-13T17:13:15.220Z,1.63
2018-09-13T17:15:44.524Z,1.73
2018-09-13T17:18:13.876Z,1.90
2018-09-13T17:20:43.096Z,1.60
2018-09-13T17:23:12.290Z,2.00
2018-09-13T17:25:41.446Z,1.93
2018-09-13T17:28:10.636Z,1.80
2018-09-13T17:30:43.018Z,2.00
2018-09-13T17:33:12.110Z,1.80
2018-09-13T17:35:43.470Z,1.70
2018-09-13T17:38:12.534Z,1.90
2018-09-13T17:40:41.669Z,1.63
2018-09-13T17:43:12.790Z,1.80
2018-09-13T17:45:45.183Z,1.63
2018-09-13T17:48:14.321Z,1.87
2018-09-13T17:50:43.514Z,2.10
2018-09-13T17:53:12.456Z,2.00
2018-09-13T17:55:44.320Z,1.70
2018-09-13T17:58:15.969Z,1.80
2018-09-13T18:00:42.524Z,2.13
2018-09-13T18:03:11.789Z,2.00
2018-09-13T18:05:40.900Z,1.77
2018-09-13T18:08:10.072Z,2.03
2018-09-13T18:10:39.226Z,1.87
2018-09-13T18:13:08.454Z,1.70
2018-09-13T18:15:37.551Z,1.90
2018-09-13T18:18:06.791Z,2.30
2018-09-13T18:20:35.940Z,2.00
2018-09-13T18:23:05.150Z,1.87
2018-09-13T18:25:34.186Z,2.03
2018-09-13T18:28:03.196Z,2.30
2018-09-13T18:30:32.552Z,2.07
2018-09-13T18:33:01.320Z,1.80
2018-09-13T18:35:30.163Z,2.20
2018-09-13T18:37:58.989Z,2.10
2018-09-13T18:40:27.821Z,1.97
2018-09-13T18:42:56.656Z,1.80
2018-09-13T18:45:25.492Z,1.83
2018-09-13T18:47:54.503Z,2.13
2018-09-13T18:50:23.361Z,1.80
2018-09-13T18:52:52.230Z,1.90
2018-09-13T18:55:21.487Z,2.00
2018-09-13T18:57:50.339Z,2.00
2018-09-13T19:00:19.271Z,2.00
2018-09-13T19:02:48.110Z,2.10
2018-09-13T19:05:16.922Z,2.00
2018-09-13T19:07:45.739Z,2.37
2018-09-13T19:10:14.560Z,2.20
2018-09-13T19:12:43.401Z,2.03
2018-09-13T19:15:12.213Z,2.10
2018-09-13T19:17:41.097Z,2.63
2018-09-13T19:20:09.900Z,2.57
2018-09-13T19:22:38.771Z,2.40
2018-09-13T19:25:07.600Z,2.37
2018-09-13T19:27:36.437Z,2.50
2018-09-13T19:30:05.310Z,2.00
2018-09-13T19:32:34.130Z,2.20
2018-09-13T19:35:02.988Z,2.43
2018-09-13T19:37:31.864Z,2.07
2018-09-13T19:40:00.694Z,2.43
2018-09-13T19:42:29.549Z,2.40
2018-09-13T19:44:58.391Z,2.50
2018-09-13T19:47:27.227Z,2.47
2018-09-13T19:49:56.052Z,2.60
2018-09-13T19:52:24.873Z,2.87
2018-09-13T19:54:53.737Z,2.63
2018-09-13T19:57:22.581Z,2.70
2018-09-13T19:59:51.488Z,2.67
2018-09-13T20:02:20.376Z,2.87
2018-09-13T20:04:49.242Z,2.83
2018-09-13T20:07:18.037Z,2.57
2018-09-13T20:09:46.855Z,2.60
2018-09-13T20:12:15.806Z,2.57
2018-09-13T20:14:44.552Z,2.40
2018-09-13T20:17:13.403Z,2.90
2018-09-13T20:19:42.228Z,2.77
2018-09-13T20:22:11.947Z,2.60
2018-09-13T20:24:40.844Z,2.47
2018-09-13T20:27:09.614Z,2.80
2018-09-13T20:29:38.481Z,2.73
2018-09-13T20:32:07.349Z,2.60
2018-09-13T20:34:36.175Z,2.77
2018-09-13T20:37:05.064Z,2.73
2018-09-13T20:39:33.961Z,2.87
2018-09-13T20:42:02.824Z,2.90
2018-09-13T20:44:31.650Z,3.30
2018-09-13T20:47:00.491Z,2.97
2018-09-13T20:49:29.389Z,2.77
2018-09-13T20:51:58.222Z,3.60
2018-09-13T20:54:27.093Z,3.17
2018-09-13T20:56:55.929Z,3.03
2018-09-13T20:59:24.757Z,2.60
2018-09-13T21:01:53.588Z,3.30
2018-09-13T21:04:22.431Z,2.70
2018-09-13T21:06:51.235Z,2.93
2018-09-13T21:09:20.131Z,2.77
2018-09-13T21:11:48.958Z,2.90
2018-09-13T21:14:17.810Z,3.10
2018-09-13T21:16:46.646Z,3.17
2018-09-13T21:19:15.476Z,3.00
2018-09-13T21:21:44.350Z,3.40
2018-09-13T21:24:13.227Z,2.70
2018-09-13T21:26:42.035Z,3.10
2018-09-13T21:29:10.851Z,2.67
2018-09-13T21:31:39.718Z,3.70
2018-09-13T21:34:08.536Z,2.70
2018-09-13T21:36:37.395Z,3.50
2018-09-13T21:39:08.597Z,3.10
2018-09-13T21:41:37.463Z,3.27
2018-09-13T21:44:06.281Z,2.90
2018-09-13T21:46:35.139Z,2.90
2018-09-13T21:49:03.972Z,2.90
2018-09-13T21:51:32.830Z,3.00
2018-09-13T21:54:01.652Z,3.13
2018-09-13T21:56:30.490Z,3.23
2018-09-13T21:58:59.420Z,3.00
2018-09-13T22:01:28.408Z,3.30
2018-09-13T22:03:57.424Z,2.70
2018-09-13T22:06:26.277Z,3.47
2018-09-13T22:08:55.152Z,3.17
2018-09-13T22:11:24.080Z,3.03
2018-09-13T22:13:52.826Z,3.20
2018-09-13T22:16:21.636Z,2.87
2018-09-13T22:18:50.477Z,3.33
2018-09-13T22:21:19.294Z,2.93
2018-09-13T22:23:48.117Z,3.30
2018-09-13T22:26:16.953Z,3.50
2018-09-13T22:28:45.779Z,2.73
2018-09-13T22:31:14.626Z,2.70
2018-09-13T22:33:43.477Z,3.10
2018-09-13T22:36:12.320Z,3.07
2018-09-13T22:38:41.136Z,2.73
2018-09-13T22:41:09.985Z,3.62
2018-09-13T22:43:51.442Z,3.00
2018-09-13T22:46:21.644Z,3.23
2018-09-13T22:48:50.506Z,3.07
2018-09-13T22:51:19.933Z,2.87
2018-09-13T22:53:48.807Z,3.10
2018-09-13T22:56:17.691Z,3.10
2018-09-13T22:58:46.533Z,3.10
2018-09-13T23:01:15.391Z,3.30
2018-09-13T23:03:44.246Z,2.93
2018-09-13T23:06:13.111Z,3.20
2018-09-13T23:08:41.927Z,3.30
2018-09-13T23:11:10.752Z,2.83
2018-09-13T23:13:39.599Z,3.80
2018-09-13T23:16:08.556Z,3.20
2018-09-13T23:18:37.254Z,3.27
2018-09-13T23:21:06.095Z,3.10
2018-09-13T23:23:34.947Z,2.90
2018-09-13T23:26:03.792Z,2.77
2018-09-13T23:28:32.634Z,2.97
2018-09-13T23:31:01.460Z,2.90
2018-09-13T23:33:30.301Z,2.80
2018-09-13T23:35:59.115Z,3.13
2018-09-13T23:38:27.945Z,2.90
2018-09-13T23:40:56.783Z,2.70
2018-09-13T23:43:25.614Z,2.90
2018-09-13T23:45:54.434Z,2.67
2018-09-13T23:48:23.296Z,2.60
2018-09-13T23:50:52.120Z,2.60
2018-09-13T23:53:20.953Z,2.97
2018-09-13T23:55:49.800Z,2.50
2018-09-13T23:58:18.640Z,3.07
